sensor_id;sensor_type;location;lat;lon;timestamp;P1;durP1;ratioP1;P2;durP2;ratioP2
23328;SDS011;11836;51.050;3.716;2023-02-20T00:00:48;2.30;;;1.92;;
23328;SDS011;11836;51.050;3.716;2023-02-20T00:03:14;2.67;;;1.98;;
23328;SDS011;11836;51.050;3.716;2023-02-20T00:05:40;3.67;;;2.50;;
23328;SDS011;11836;51.050;3.716;2023-02-20T00:08:06;3.78;;;2.22;;
23328;SDS011;11836;51.050;3.716;2023-02-20T00:10:31;3.33;;;2.05;;
23328;SDS011;11836;51.050;3.716;2023-02-20T00:12:57;3.72;;;2.50;;
23328;SDS011;11836;51.050;3.716;2023-02-20T00:15:23;3.35;;;2.10;;
23328;SDS011;11836;51.050;3.716;2023-02-20T00:17:49;6.50;;;2.58;;
23328;SDS011;11836;51.050;3.716;2023-02-20T00:20:19;4.40;;;2.38;;
23328;SDS011;11836;51.050;3.716;2023-02-20T00:22:46;2.92;;;2.08;;
23328;SDS011;11836;51.050;3.716;2023-02-20T00:25:14;3.88;;;2.08;;
23328;SDS011;11836;51.050;3.716;2023-02-20T00:27:44;5.32;;;2.33;;
23328;SDS011;11836;51.050;3.716;2023-02-20T00:30:13;4.72;;;2.20;;
23328;SDS011;11836;51.050;3.716;2023-02-20T00:32:45;3.63;;;1.90;;
23328;SDS011;11836;51.050;3.716;2023-02-20T00:35:17;3.80;;;2.13;;
23328;SDS011;11836;51.050;3.716;2023-02-20T00:37:45;3.00;;;1.58;;
23328;SDS011;11836;51.050;3.716;2023-02-20T00:40:11;3.70;;;2.22;;
23328;SDS011;11836;51.050;3.716;2023-02-20T00:42:40;3.22;;;1.92;;
23328;SDS011;11836;51.050;3.716;2023-02-20T00:45:07;5.72;;;2.20;;
23328;SDS011;11836;51.050;3.716;2023-02-20T00:47:33;4.15;;;2.03;;
23328;SDS011;11836;51.050;3.716;2023-02-20T00:49:59;2.13;;;1.75;;
23328;SDS011;11836;51.050;3.716;2023-02-20T00:52:24;4.13;;;2.08;;
23328;SDS011;11836;51.050;3.716;2023-02-20T00:54:53;5.10;;;2.50;;
23328;SDS011;11836;51.050;3.716;2023-02-20T00:57:20;4.28;;;2.10;;
23328;SDS011;11836;51.050;3.716;2023-02-20T00:59:46;6.88;;;2.33;;
23328;SDS011;11836;51.050;3.716;2023-02-20T01:02:12;5.35;;;2.20;;
23328;SDS011;11836;51.050;3.716;2023-02-20T01:04:37;3.85;;;2.28;;
23328;SDS011;11836;51.050;3.716;2023-02-20T01:07:03;3.25;;;2.13;;
23328;SDS011;11836;51.050;3.716;2023-02-20T01:09:29;5.03;;;2.28;;
23328;SDS011;11836;51.050;3.716;2023-02-20T01:11:57;3.45;;;2.05;;
23328;SDS011;11836;51.050;3.716;2023-02-20T01:14:25;3.38;;;1.90;;
23328;SDS011;11836;51.050;3.716;2023-02-20T01:16:52;4.93;;;2.00;;
23328;SDS011;11836;51.050;3.716;2023-02-20T01:19:22;3.25;;;1.60;;
23328;SDS011;11836;51.050;3.716;2023-02-20T01:21:49;2.85;;;1.80;;
23328;SDS011;11836;51.050;3.716;2023-02-20T01:24:21;5.30;;;1.85;;
23328;SDS011;11836;51.050;3.716;2023-02-20T01:29:19;5.65;;;1.98;;
23328;SDS011;11836;51.050;3.716;2023-02-20T01:31:48;2.50;;;1.65;;
23328;SDS011;11836;51.050;3.716;2023-02-20T01:39:18;5.82;;;1.90;;
23328;SDS011;11836;51.050;3.716;2023-02-20T01:41:46;5.97;;;2.25;;
23328;SDS011;11836;51.050;3.716;2023-02-20T01:46:51;2.78;;;1.70;;
23328;SDS011;11836;51.050;3.716;2023-02-20T01:51:58;6.15;;;2.08;;
23328;SDS011;11836;51.050;3.716;2023-02-20T01:54:31;4.70;;;1.63;;
23328;SDS011;11836;51.050;3.716;2023-02-20T01:57:00;5.95;;;1.80;;
23328;SDS011;11836;51.050;3.716;2023-02-20T01:59:34;3.85;;;1.60;;
23328;SDS011;11836;51.050;3.716;2023-02-20T02:02:03;5.05;;;1.92;;
23328;SDS011;11836;51.050;3.716;2023-02-20T02:04:30;3.38;;;1.83;;
23328;SDS011;11836;51.050;3.716;2023-02-20T02:06:58;4.90;;;1.70;;
23328;SDS011;11836;51.050;3.716;2023-02-20T02:09:36;4.40;;;1.80;;
23328;SDS011;11836;51.050;3.716;2023-02-20T02:12:20;5.60;;;1.63;;
23328;SDS011;11836;51.050;3.716;2023-02-20T02:14:47;5.70;;;1.40;;
23328;SDS011;11836;51.050;3.716;2023-02-20T02:40:51;3.95;;;1.50;;
23328;SDS011;11836;51.050;3.716;2023-02-20T02:50:52;5.72;;;1.67;;
23328;SDS011;11836;51.050;3.716;2023-02-20T02:53:24;3.33;;;1.25;;
23328;SDS011;11836;51.050;3.716;2023-02-20T02:55:50;4.45;;;2.03;;
23328;SDS011;11836;51.050;3.716;2023-02-20T02:58:16;2.75;;;1.48;;
23328;SDS011;11836;51.050;3.716;2023-02-20T03:00:56;4.05;;;1.63;;
23328;SDS011;11836;51.050;3.716;2023-02-20T03:03:29;3.95;;;1.50;;
23328;SDS011;11836;51.050;3.716;2023-02-20T03:06:08;4.15;;;1.55;;
23328;SDS011;11836;51.050;3.716;2023-02-20T03:08:50;5.13;;;1.92;;
23328;SDS011;11836;51.050;3.716;2023-02-20T03:11:24;3.35;;;1.30;;
23328;SDS011;11836;51.050;3.716;2023-02-20T03:13:58;3.20;;;1.90;;
23328;SDS011;11836;51.050;3.716;2023-02-20T03:19:44;7.38;;;2.10;;
23328;SDS011;11836;51.050;3.716;2023-02-20T03:22:25;3.92;;;1.40;;
23328;SDS011;11836;51.050;3.716;2023-02-20T03:24:58;2.90;;;1.50;;
23328;SDS011;11836;51.050;3.716;2023-02-20T03:27:38;5.30;;;1.60;;
23328;SDS011;11836;51.050;3.716;2023-02-20T03:32:52;4.15;;;1.83;;
23328;SDS011;11836;51.050;3.716;2023-02-20T03:35:45;2.85;;;1.27;;
23328;SDS011;11836;51.050;3.716;2023-02-20T03:38:31;2.85;;;1.30;;
23328;SDS011;11836;51.050;3.716;2023-02-20T03:41:19;4.00;;;1.40;;
23328;SDS011;11836;51.050;3.716;2023-02-20T03:44:10;5.93;;;1.60;;
23328;SDS011;11836;51.050;3.716;2023-02-20T03:46:39;3.78;;;1.48;;
23328;SDS011;11836;51.050;3.716;2023-02-20T03:49:07;3.75;;;1.60;;
23328;SDS011;11836;51.050;3.716;2023-02-20T03:51:38;3.47;;;1.50;;
23328;SDS011;11836;51.050;3.716;2023-02-20T03:54:24;1.85;;;1.17;;
23328;SDS011;11836;51.050;3.716;2023-02-20T03:56:53;3.10;;;1.60;;
23328;SDS011;11836;51.050;3.716;2023-02-20T03:59:31;3.30;;;1.55;;
23328;SDS011;11836;51.050;3.716;2023-02-20T04:02:05;5.18;;;1.73;;
23328;SDS011;11836;51.050;3.716;2023-02-20T04:04:36;2.85;;;1.50;;
23328;SDS011;11836;51.050;3.716;2023-02-20T04:07:14;3.47;;;1.60;;
23328;SDS011;11836;51.050;3.716;2023-02-20T04:09:44;2.88;;;1.30;;
23328;SDS011;11836;51.050;3.716;2023-02-20T04:12:21;4.57;;;1.70;;
23328;SDS011;11836;51.050;3.716;2023-02-20T04:14:54;3.67;;;1.30;;
23328;SDS011;11836;51.050;3.716;2023-02-20T04:17:26;3.88;;;1.30;;
23328;SDS011;11836;51.050;3.716;2023-02-20T04:19:56;4.50;;;1.50;;
23328;SDS011;11836;51.050;3.716;2023-02-20T04:22:29;4.60;;;1.50;;
23328;SDS011;11836;51.050;3.716;2023-02-20T04:25:03;4.85;;;1.65;;
23328;SDS011;11836;51.050;3.716;2023-02-20T04:27:40;3.40;;;1.20;;
23328;SDS011;11836;51.050;3.716;2023-02-20T04:30:09;2.80;;;1.10;;
23328;SDS011;11836;51.050;3.716;2023-02-20T04:32:35;4.30;;;1.30;;
23328;SDS011;11836;51.050;3.716;2023-02-20T04:35:01;3.10;;;1.33;;
23328;SDS011;11836;51.050;3.716;2023-02-20T04:37:27;4.00;;;1.40;;
23328;SDS011;11836;51.050;3.716;2023-02-20T04:39:53;3.40;;;1.45;;
23328;SDS011;11836;51.050;3.716;2023-02-20T04:42:19;3.75;;;1.45;;
23328;SDS011;11836;51.050;3.716;2023-02-20T04:44:47;3.25;;;1.60;;
23328;SDS011;11836;51.050;3.716;2023-02-20T04:47:14;2.30;;;1.27;;
23328;SDS011;11836;51.050;3.716;2023-02-20T04:49:41;2.25;;;1.17;;
23328;SDS011;11836;51.050;3.716;2023-02-20T04:52:07;2.65;;;1.30;;
23328;SDS011;11836;51.050;3.716;2023-02-20T04:54:33;2.65;;;1.23;;
23328;SDS011;11836;51.050;3.716;2023-02-20T04:56:58;2.30;;;1.10;;
23328;SDS011;11836;51.050;3.716;2023-02-20T04:59:25;3.58;;;1.35;;
23328;SDS011;11836;51.050;3.716;2023-02-20T05:01:51;2.72;;;1.30;;
23328;SDS011;11836;51.050;3.716;2023-02-20T05:04:19;3.55;;;1.30;;
23328;SDS011;11836;51.050;3.716;2023-02-20T05:06:52;5.03;;;1.70;;
23328;SDS011;11836;51.050;3.716;2023-02-20T05:09:19;2.60;;;1.13;;
23328;SDS011;11836;51.050;3.716;2023-02-20T05:11:45;3.13;;;1.50;;
23328;SDS011;11836;51.050;3.716;2023-02-20T05:14:11;4.25;;;1.30;;
23328;SDS011;11836;51.050;3.716;2023-02-20T05:16:38;2.58;;;1.17;;
23328;SDS011;11836;51.050;3.716;2023-02-20T05:19:05;3.28;;;1.15;;
23328;SDS011;11836;51.050;3.716;2023-02-20T05:21:31;3.50;;;1.33;;
23328;SDS011;11836;51.050;3.716;2023-02-20T05:24:16;2.90;;;1.30;;
23328;SDS011;11836;51.050;3.716;2023-02-20T05:26:41;3.53;;;1.42;;
23328;SDS011;11836;51.050;3.716;2023-02-20T05:29:07;3.60;;;1.30;;
23328;SDS011;11836;51.050;3.716;2023-02-20T05:31:37;3.05;;;1.13;;
23328;SDS011;11836;51.050;3.716;2023-02-20T05:34:04;2.53;;;1.20;;
23328;SDS011;11836;51.050;3.716;2023-02-20T05:36:31;2.40;;;0.98;;
23328;SDS011;11836;51.050;3.716;2023-02-20T05:38:56;3.17;;;1.27;;
23328;SDS011;11836;51.050;3.716;2023-02-20T05:41:22;2.80;;;1.13;;
23328;SDS011;11836;51.050;3.716;2023-02-20T05:43:48;2.10;;;1.10;;
23328;SDS011;11836;51.050;3.716;2023-02-20T05:46:14;2.85;;;1.40;;
23328;SDS011;11836;51.050;3.716;2023-02-20T05:48:40;2.75;;;1.45;;
23328;SDS011;11836;51.050;3.716;2023-02-20T05:51:07;3.20;;;1.30;;
23328;SDS011;11836;51.050;3.716;2023-02-20T05:53:33;3.03;;;1.35;;
23328;SDS011;11836;51.050;3.716;2023-02-20T05:55:59;4.93;;;1.48;;
23328;SDS011;11836;51.050;3.716;2023-02-20T05:58:25;1.48;;;0.90;;
23328;SDS011;11836;51.050;3.716;2023-02-20T06:00:50;2.30;;;1.10;;
23328;SDS011;11836;51.050;3.716;2023-02-20T06:03:16;4.05;;;1.50;;
23328;SDS011;11836;51.050;3.716;2023-02-20T06:05:45;5.78;;;0.90;;
23328;SDS011;11836;51.050;3.716;2023-02-20T06:08:14;3.35;;;1.02;;
23328;SDS011;11836;51.050;3.716;2023-02-20T06:10:40;2.58;;;1.00;;
23328;SDS011;11836;51.050;3.716;2023-02-20T06:13:07;3.50;;;1.10;;
23328;SDS011;11836;51.050;3.716;2023-02-20T06:15:32;4.05;;;1.20;;
23328;SDS011;11836;51.050;3.716;2023-02-20T06:17:58;3.53;;;1.00;;
23328;SDS011;11836;51.050;3.716;2023-02-20T06:20:24;5.82;;;1.38;;
23328;SDS011;11836;51.050;3.716;2023-02-20T06:22:50;3.40;;;1.88;;
23328;SDS011;11836;51.050;3.716;2023-02-20T06:25:15;2.88;;;1.33;;
23328;SDS011;11836;51.050;3.716;2023-02-20T06:27:41;2.10;;;1.30;;
23328;SDS011;11836;51.050;3.716;2023-02-20T06:30:07;3.00;;;0.73;;
23328;SDS011;11836;51.050;3.716;2023-02-20T06:32:33;3.80;;;0.98;;
23328;SDS011;11836;51.050;3.716;2023-02-20T06:34:59;3.97;;;1.38;;
23328;SDS011;11836;51.050;3.716;2023-02-20T06:37:24;2.10;;;1.05;;
23328;SDS011;11836;51.050;3.716;2023-02-20T06:39:50;3.70;;;1.20;;
23328;SDS011;11836;51.050;3.716;2023-02-20T06:42:16;3.40;;;1.00;;
23328;SDS011;11836;51.050;3.716;2023-02-20T06:44:41;2.97;;;1.13;;
23328;SDS011;11836;51.050;3.716;2023-02-20T06:47:07;2.17;;;1.05;;
23328;SDS011;11836;51.050;3.716;2023-02-20T06:49:36;3.53;;;1.10;;
23328;SDS011;11836;51.050;3.716;2023-02-20T06:52:03;6.93;;;1.23;;
23328;SDS011;11836;51.050;3.716;2023-02-20T06:54:30;3.72;;;1.30;;
23328;SDS011;11836;51.050;3.716;2023-02-20T06:56:56;3.63;;;1.67;;
23328;SDS011;11836;51.050;3.716;2023-02-20T06:59:23;3.42;;;1.08;;
23328;SDS011;11836;51.050;3.716;2023-02-20T07:01:49;2.33;;;1.10;;
23328;SDS011;11836;51.050;3.716;2023-02-20T07:04:16;6.00;;;2.38;;
23328;SDS011;11836;51.050;3.716;2023-02-20T07:06:50;8.63;;;2.30;;
23328;SDS011;11836;51.050;3.716;2023-02-20T07:09:17;7.18;;;2.65;;
23328;SDS011;11836;51.050;3.716;2023-02-20T07:11:44;7.15;;;2.78;;
23328;SDS011;11836;51.050;3.716;2023-02-20T07:16:41;5.32;;;2.40;;
23328;SDS011;11836;51.050;3.716;2023-02-20T07:19:06;3.80;;;2.13;;
23328;SDS011;11836;51.050;3.716;2023-02-20T07:21:32;5.95;;;2.42;;
23328;SDS011;11836;51.050;3.716;2023-02-20T07:23:58;11.40;;;2.35;;
23328;SDS011;11836;51.050;3.716;2023-02-20T07:26:25;6.70;;;2.53;;
23328;SDS011;11836;51.050;3.716;2023-02-20T07:28:52;4.72;;;2.05;;
23328;SDS011;11836;51.050;3.716;2023-02-20T07:31:18;8.15;;;2.35;;
23328;SDS011;11836;51.050;3.716;2023-02-20T07:33:47;4.85;;;1.60;;
23328;SDS011;11836;51.050;3.716;2023-02-20T07:36:13;5.88;;;1.80;;
23328;SDS011;11836;51.050;3.716;2023-02-20T07:38:55;4.85;;;1.60;;
23328;SDS011;11836;51.050;3.716;2023-02-20T07:41:22;3.70;;;1.50;;
23328;SDS011;11836;51.050;3.716;2023-02-20T07:43:51;7.15;;;1.73;;
23328;SDS011;11836;51.050;3.716;2023-02-20T07:46:17;3.58;;;1.08;;
23328;SDS011;11836;51.050;3.716;2023-02-20T07:48:42;2.92;;;0.98;;
23328;SDS011;11836;51.050;3.716;2023-02-20T07:51:08;5.57;;;1.45;;
23328;SDS011;11836;51.050;3.716;2023-02-20T07:53:34;4.50;;;1.58;;
23328;SDS011;11836;51.050;3.716;2023-02-20T07:56:01;6.63;;;1.50;;
23328;SDS011;11836;51.050;3.716;2023-02-20T07:58:28;3.17;;;1.42;;
23328;SDS011;11836;51.050;3.716;2023-02-20T08:00:54;3.63;;;1.55;;
23328;SDS011;11836;51.050;3.716;2023-02-20T08:03:19;3.53;;;1.45;;
23328;SDS011;11836;51.050;3.716;2023-02-20T08:05:45;4.97;;;1.30;;
23328;SDS011;11836;51.050;3.716;2023-02-20T08:08:11;3.75;;;1.40;;
23328;SDS011;11836;51.050;3.716;2023-02-20T08:10:36;3.75;;;0.95;;
23328;SDS011;11836;51.050;3.716;2023-02-20T08:13:02;5.07;;;1.40;;
23328;SDS011;11836;51.050;3.716;2023-02-20T08:15:31;2.13;;;1.17;;
23328;SDS011;11836;51.050;3.716;2023-02-20T08:17:57;3.40;;;1.30;;
23328;SDS011;11836;51.050;3.716;2023-02-20T08:20:23;2.38;;;1.40;;
23328;SDS011;11836;51.050;3.716;2023-02-20T08:22:50;4.90;;;1.48;;
23328;SDS011;11836;51.050;3.716;2023-02-20T08:25:17;3.13;;;1.27;;
23328;SDS011;11836;51.050;3.716;2023-02-20T08:27:44;2.70;;;0.95;;
23328;SDS011;11836;51.050;3.716;2023-02-20T08:30:12;2.92;;;1.17;;
23328;SDS011;11836;51.050;3.716;2023-02-20T08:32:40;3.63;;;1.20;;
23328;SDS011;11836;51.050;3.716;2023-02-20T08:35:06;5.85;;;1.52;;
23328;SDS011;11836;51.050;3.716;2023-02-20T08:37:32;2.72;;;1.10;;
23328;SDS011;11836;51.050;3.716;2023-02-20T08:39:59;3.00;;;1.20;;
23328;SDS011;11836;51.050;3.716;2023-02-20T08:42:32;3.00;;;1.45;;
23328;SDS011;11836;51.050;3.716;2023-02-20T08:45:03;5.40;;;1.75;;
23328;SDS011;11836;51.050;3.716;2023-02-20T08:52:44;3.00;;;1.13;;
23328;SDS011;11836;51.050;3.716;2023-02-20T08:55:11;3.67;;;1.10;;
23328;SDS011;11836;51.050;3.716;2023-02-20T08:57:41;5.15;;;1.25;;
23328;SDS011;11836;51.050;3.716;2023-02-20T09:00:09;2.15;;;1.00;;
23328;SDS011;11836;51.050;3.716;2023-02-20T09:02:36;1.67;;;1.10;;
23328;SDS011;11836;51.050;3.716;2023-02-20T09:05:01;2.35;;;1.33;;
23328;SDS011;11836;51.050;3.716;2023-02-20T09:07:29;3.70;;;1.50;;
23328;SDS011;11836;51.050;3.716;2023-02-20T09:09:54;4.20;;;1.20;;
23328;SDS011;11836;51.050;3.716;2023-02-20T09:12:20;2.75;;;1.20;;
23328;SDS011;11836;51.050;3.716;2023-02-20T09:14:47;2.67;;;1.60;;
23328;SDS011;11836;51.050;3.716;2023-02-20T09:17:19;2.03;;;1.00;;
23328;SDS011;11836;51.050;3.716;2023-02-20T09:27:31;2.97;;;1.20;;
23328;SDS011;11836;51.050;3.716;2023-02-20T09:29:58;2.95;;;1.27;;
23328;SDS011;11836;51.050;3.716;2023-02-20T09:32:24;3.83;;;1.45;;
23328;SDS011;11836;51.050;3.716;2023-02-20T09:34:50;3.10;;;1.55;;
23328;SDS011;11836;51.050;3.716;2023-02-20T09:37:15;2.67;;;1.50;;
23328;SDS011;11836;51.050;3.716;2023-02-20T09:39:41;4.20;;;1.30;;
23328;SDS011;11836;51.050;3.716;2023-02-20T09:55:55;3.35;;;1.70;;
23328;SDS011;11836;51.050;3.716;2023-02-20T10:01:07;3.65;;;1.23;;
23328;SDS011;11836;51.050;3.716;2023-02-20T10:03:35;2.45;;;0.88;;
23328;SDS011;11836;51.050;3.716;2023-02-20T10:06:14;2.15;;;0.95;;
23328;SDS011;11836;51.050;3.716;2023-02-20T10:08:42;2.28;;;1.02;;
23328;SDS011;11836;51.050;3.716;2023-02-20T10:11:14;3.47;;;1.10;;
23328;SDS011;11836;51.050;3.716;2023-02-20T10:14:12;3.90;;;1.25;;
23328;SDS011;11836;51.050;3.716;2023-02-20T10:16:58;2.50;;;1.13;;
23328;SDS011;11836;51.050;3.716;2023-02-20T10:22:16;4.18;;;1.40;;
23328;SDS011;11836;51.050;3.716;2023-02-20T10:30:26;4.82;;;1.60;;
23328;SDS011;11836;51.050;3.716;2023-02-20T10:33:13;5.68;;;1.95;;
23328;SDS011;11836;51.050;3.716;2023-02-20T10:38:57;2.83;;;0.98;;
23328;SDS011;11836;51.050;3.716;2023-02-20T10:41:40;2.25;;;1.00;;
23328;SDS011;11836;51.050;3.716;2023-02-20T10:44:35;6.00;;;1.52;;
23328;SDS011;11836;51.050;3.716;2023-02-20T10:53:01;1.58;;;1.00;;
23328;SDS011;11836;51.050;3.716;2023-02-20T10:58:41;3.80;;;0.95;;
23328;SDS011;11836;51.050;3.716;2023-02-20T11:01:29;3.10;;;1.33;;
23328;SDS011;11836;51.050;3.716;2023-02-20T11:04:11;3.05;;;1.15;;
23328;SDS011;11836;51.050;3.716;2023-02-20T11:07:01;1.40;;;1.02;;
23328;SDS011;11836;51.050;3.716;2023-02-20T11:09:26;2.88;;;1.02;;
23328;SDS011;11836;51.050;3.716;2023-02-20T11:11:53;3.60;;;1.17;;
23328;SDS011;11836;51.050;3.716;2023-02-20T11:17:14;6.90;;;1.63;;
23328;SDS011;11836;51.050;3.716;2023-02-20T11:22:09;4.68;;;1.63;;
23328;SDS011;11836;51.050;3.716;2023-02-20T11:24:36;2.25;;;1.20;;
23328;SDS011;11836;51.050;3.716;2023-02-20T11:27:13;6.20;;;2.25;;
23328;SDS011;11836;51.050;3.716;2023-02-20T11:30:27;2.90;;;1.10;;
23328;SDS011;11836;51.050;3.716;2023-02-20T11:32:44;3.03;;;1.20;;
23328;SDS011;11836;51.050;3.716;2023-02-20T11:37:40;3.70;;;1.30;;
23328;SDS011;11836;51.050;3.716;2023-02-20T11:40:26;3.10;;;1.10;;
23328;SDS011;11836;51.050;3.716;2023-02-20T11:42:54;3.78;;;1.38;;
23328;SDS011;11836;51.050;3.716;2023-02-20T11:45:22;3.50;;;1.40;;
23328;SDS011;11836;51.050;3.716;2023-02-20T11:48:08;3.45;;;1.40;;
23328;SDS011;11836;51.050;3.716;2023-02-20T11:53:18;4.05;;;1.40;;
23328;SDS011;11836;51.050;3.716;2023-02-20T11:58:34;5.18;;;1.88;;
23328;SDS011;11836;51.050;3.716;2023-02-20T12:01:03;3.40;;;1.15;;
23328;SDS011;11836;51.050;3.716;2023-02-20T12:03:32;2.97;;;1.30;;
23328;SDS011;11836;51.050;3.716;2023-02-20T12:06:01;3.30;;;1.70;;
23328;SDS011;11836;51.050;3.716;2023-02-20T12:11:20;3.35;;;1.23;;
23328;SDS011;11836;51.050;3.716;2023-02-20T12:13:50;3.42;;;1.30;;
23328;SDS011;11836;51.050;3.716;2023-02-20T12:27:17;2.15;;;1.20;;
23328;SDS011;11836;51.050;3.716;2023-02-20T12:30:15;3.53;;;1.65;;
23328;SDS011;11836;51.050;3.716;2023-02-20T12:36:01;3.33;;;1.60;;
23328;SDS011;11836;51.050;3.716;2023-02-20T12:44:01;2.67;;;1.23;;
23328;SDS011;11836;51.050;3.716;2023-02-20T12:46:49;5.05;;;1.33;;
23328;SDS011;11836;51.050;3.716;2023-02-20T13:01:29;5.25;;;1.85;;
23328;SDS011;11836;51.050;3.716;2023-02-20T13:06:39;4.35;;;1.55;;
23328;SDS011;11836;51.050;3.716;2023-02-20T13:22:04;4.18;;;1.75;;
23328;SDS011;11836;51.050;3.716;2023-02-20T13:24:33;6.78;;;2.17;;
23328;SDS011;11836;51.050;3.716;2023-02-20T13:27:08;4.93;;;2.00;;
23328;SDS011;11836;51.050;3.716;2023-02-20T13:33:20;5.20;;;2.08;;
23328;SDS011;11836;51.050;3.716;2023-02-20T13:42:23;5.38;;;2.22;;
23328;SDS011;11836;51.050;3.716;2023-02-20T13:45:02;6.50;;;1.92;;
23328;SDS011;11836;51.050;3.716;2023-02-20T13:48:19;7.28;;;1.70;;
23328;SDS011;11836;51.050;3.716;2023-02-20T13:57:18;3.00;;;1.50;;
23328;SDS011;11836;51.050;3.716;2023-02-20T14:06:40;4.45;;;1.73;;
23328;SDS011;11836;51.050;3.716;2023-02-20T14:12:43;4.07;;;1.95;;
23328;SDS011;11836;51.050;3.716;2023-02-20T14:21:45;5.93;;;1.63;;
23328;SDS011;11836;51.050;3.716;2023-02-20T14:24:17;3.10;;;1.38;;
23328;SDS011;11836;51.050;3.716;2023-02-20T14:26:49;3.45;;;1.70;;
23328;SDS011;11836;51.050;3.716;2023-02-20T14:32:01;4.93;;;1.67;;
23328;SDS011;11836;51.050;3.716;2023-02-20T14:38:42;2.08;;;1.08;;
23328;SDS011;11836;51.050;3.716;2023-02-20T14:41:59;3.10;;;1.80;;
23328;SDS011;11836;51.050;3.716;2023-02-20T14:48:34;3.35;;;1.38;;
23328;SDS011;11836;51.050;3.716;2023-02-20T14:54:56;4.97;;;1.25;;
23328;SDS011;11836;51.050;3.716;2023-02-20T15:01:34;4.47;;;1.70;;
23328;SDS011;11836;51.050;3.716;2023-02-20T15:04:49;1.42;;;1.10;;
23328;SDS011;11836;51.050;3.716;2023-02-20T15:07:48;4.55;;;1.52;;
23328;SDS011;11836;51.050;3.716;2023-02-20T15:13:08;2.65;;;0.98;;
23328;SDS011;11836;51.050;3.716;2023-02-20T15:15:40;3.65;;;1.30;;
23328;SDS011;11836;51.050;3.716;2023-02-20T15:18:47;2.42;;;1.42;;
23328;SDS011;11836;51.050;3.716;2023-02-20T15:37:52;4.90;;;1.15;;
23328;SDS011;11836;51.050;3.716;2023-02-20T15:40:29;4.28;;;0.88;;
23328;SDS011;11836;51.050;3.716;2023-02-20T15:42:59;3.75;;;1.10;;
23328;SDS011;11836;51.050;3.716;2023-02-20T15:45:26;2.90;;;1.17;;
23328;SDS011;11836;51.050;3.716;2023-02-20T15:57:52;1.55;;;0.73;;
23328;SDS011;11836;51.050;3.716;2023-02-20T16:00:25;1.50;;;0.70;;
23328;SDS011;11836;51.050;3.716;2023-02-20T16:02:56;3.47;;;1.20;;
23328;SDS011;11836;51.050;3.716;2023-02-20T16:18:55;1.52;;;0.98;;
23328;SDS011;11836;51.050;3.716;2023-02-20T16:27:44;1.88;;;1.15;;
23328;SDS011;11836;51.050;3.716;2023-02-20T16:30:20;2.13;;;0.80;;
23328;SDS011;11836;51.050;3.716;2023-02-20T16:32:58;2.95;;;1.02;;
23328;SDS011;11836;51.050;3.716;2023-02-20T16:35:26;3.70;;;1.17;;
23328;SDS011;11836;51.050;3.716;2023-02-20T16:47:16;2.40;;;1.15;;
23328;SDS011;11836;51.050;3.716;2023-02-20T16:50:03;2.00;;;1.05;;
23328;SDS011;11836;51.050;3.716;2023-02-20T17:07:45;1.55;;;1.13;;
23328;SDS011;11836;51.050;3.716;2023-02-20T17:13:11;3.20;;;1.20;;
23328;SDS011;11836;51.050;3.716;2023-02-20T17:24:53;1.50;;;0.90;;
23328;SDS011;11836;51.050;3.716;2023-02-20T17:34:03;2.72;;;1.10;;
23328;SDS011;11836;51.050;3.716;2023-02-20T17:42:21;4.75;;;1.77;;
23328;SDS011;11836;51.050;3.716;2023-02-20T17:44:47;3.58;;;1.30;;
23328;SDS011;11836;51.050;3.716;2023-02-20T17:47:14;3.00;;;1.38;;
23328;SDS011;11836;51.050;3.716;2023-02-20T17:50:08;5.15;;;1.30;;
23328;SDS011;11836;51.050;3.716;2023-02-20T17:59:47;3.80;;;1.60;;
23328;SDS011;11836;51.050;3.716;2023-02-20T18:19:05;3.00;;;1.17;;
23328;SDS011;11836;51.050;3.716;2023-02-20T18:21:50;3.17;;;1.20;;
23328;SDS011;11836;51.050;3.716;2023-02-20T18:32:54;2.92;;;1.40;;
23328;SDS011;11836;51.050;3.716;2023-02-20T18:39:24;1.52;;;1.00;;
23328;SDS011;11836;51.050;3.716;2023-02-20T18:41:55;4.68;;;1.48;;
23328;SDS011;11836;51.050;3.716;2023-02-20T18:44:21;4.25;;;1.48;;
23328;SDS011;11836;51.050;3.716;2023-02-20T18:47:02;6.47;;;1.83;;
23328;SDS011;11836;51.050;3.716;2023-02-20T18:55:47;2.58;;;1.10;;
23328;SDS011;11836;51.050;3.716;2023-02-20T19:07:33;3.42;;;1.55;;
23328;SDS011;11836;51.050;3.716;2023-02-20T19:10:02;1.67;;;1.15;;
23328;SDS011;11836;51.050;3.716;2023-02-20T19:15:30;3.72;;;2.00;;
23328;SDS011;11836;51.050;3.716;2023-02-20T19:17:56;2.38;;;1.10;;
23328;SDS011;11836;51.050;3.716;2023-02-20T19:30:13;2.47;;;1.33;;
23328;SDS011;11836;51.050;3.716;2023-02-20T19:32:47;2.15;;;1.30;;
23328;SDS011;11836;51.050;3.716;2023-02-20T19:35:21;2.15;;;1.75;;
23328;SDS011;11836;51.050;3.716;2023-02-20T19:47:17;1.55;;;1.25;;
23328;SDS011;11836;51.050;3.716;2023-02-20T19:50:01;2.90;;;1.30;;
23328;SDS011;11836;51.050;3.716;2023-02-20T19:52:27;3.05;;;1.20;;
23328;SDS011;11836;51.050;3.716;2023-02-20T19:58:41;2.15;;;1.20;;
23328;SDS011;11836;51.050;3.716;2023-02-20T20:01:12;2.05;;;1.02;;
23328;SDS011;11836;51.050;3.716;2023-02-20T20:03:42;2.83;;;1.38;;
23328;SDS011;11836;51.050;3.716;2023-02-20T20:06:09;1.73;;;1.00;;
23328;SDS011;11836;51.050;3.716;2023-02-20T20:08:36;3.58;;;1.40;;
23328;SDS011;11836;51.050;3.716;2023-02-20T20:11:02;2.45;;;1.73;;
23328;SDS011;11836;51.050;3.716;2023-02-20T20:13:31;2.78;;;1.35;;
23328;SDS011;11836;51.050;3.716;2023-02-20T20:15:57;2.55;;;1.08;;
23328;SDS011;11836;51.050;3.716;2023-02-20T20:21:21;4.47;;;0.97;;
23328;SDS011;11836;51.050;3.716;2023-02-20T20:23:47;1.67;;;1.08;;
23328;SDS011;11836;51.050;3.716;2023-02-20T20:26:13;3.35;;;1.38;;
23328;SDS011;11836;51.050;3.716;2023-02-20T20:38:23;2.13;;;1.02;;
23328;SDS011;11836;51.050;3.716;2023-02-20T20:41:48;1.27;;;1.00;;
23328;SDS011;11836;51.050;3.716;2023-02-20T20:44:16;2.95;;;1.30;;
23328;SDS011;11836;51.050;3.716;2023-02-20T20:46:44;4.00;;;1.48;;
23328;SDS011;11836;51.050;3.716;2023-02-20T20:49:10;1.75;;;0.80;;
23328;SDS011;11836;51.050;3.716;2023-02-20T20:51:36;1.60;;;0.90;;
23328;SDS011;11836;51.050;3.716;2023-02-20T20:56:30;1.95;;;1.27;;
23328;SDS011;11836;51.050;3.716;2023-02-20T20:58:56;1.95;;;1.15;;
23328;SDS011;11836;51.050;3.716;2023-02-20T21:01:22;2.10;;;1.00;;
23328;SDS011;11836;51.050;3.716;2023-02-20T21:17:01;1.67;;;1.30;;
23328;SDS011;11836;51.050;3.716;2023-02-20T21:22:26;1.40;;;1.25;;
23328;SDS011;11836;51.050;3.716;2023-02-20T21:31:23;2.03;;;1.20;;
23328;SDS011;11836;51.050;3.716;2023-02-20T21:37:27;1.67;;;1.30;;
23328;SDS011;11836;51.050;3.716;2023-02-20T21:40:35;5.30;;;1.42;;
23328;SDS011;11836;51.050;3.716;2023-02-20T21:49:35;3.17;;;1.45;;
23328;SDS011;11836;51.050;3.716;2023-02-20T21:52:17;2.17;;;1.38;;
23328;SDS011;11836;51.050;3.716;2023-02-20T21:55:22;1.83;;;1.30;;
23328;SDS011;11836;51.050;3.716;2023-02-20T22:07:36;3.55;;;1.52;;
23328;SDS011;11836;51.050;3.716;2023-02-20T22:10:20;1.50;;;1.40;;
23328;SDS011;11836;51.050;3.716;2023-02-20T22:16:53;1.40;;;1.20;;
23328;SDS011;11836;51.050;3.716;2023-02-20T22:19:49;1.75;;;1.45;;
23328;SDS011;11836;51.050;3.716;2023-02-20T22:22:35;3.38;;;2.05;;
23328;SDS011;11836;51.050;3.716;2023-02-20T22:25:39;2.22;;;1.60;;
23328;SDS011;11836;51.050;3.716;2023-02-20T22:28:23;3.25;;;1.30;;
23328;SDS011;11836;51.050;3.716;2023-02-20T22:31:17;1.40;;;1.25;;
23328;SDS011;11836;51.050;3.716;2023-02-20T22:34:01;2.22;;;1.38;;
23328;SDS011;11836;51.050;3.716;2023-02-20T22:40:05;2.13;;;1.52;;
23328;SDS011;11836;51.050;3.716;2023-02-20T22:42:50;2.05;;;1.40;;
23328;SDS011;11836;51.050;3.716;2023-02-20T22:52:15;2.67;;;1.52;;
23328;SDS011;11836;51.050;3.716;2023-02-20T22:55:21;1.70;;;1.60;;
23328;SDS011;11836;51.050;3.716;2023-02-20T23:04:45;1.80;;;1.70;;
23328;SDS011;11836;51.050;3.716;2023-02-20T23:11:10;1.77;;;1.55;;